sensor_id;sensor_type;location;lat;lon;timestamp;P1;durP1;ratioP1;P2;durP2;ratioP2
73023;SDS011;61199;47.526;8.538;2022-08-25T00:00:47;10.37;;;5.73;;
73023;SDS011;61199;47.526;8.538;2022-08-25T00:03:15;10.73;;;5.97;;
73023;SDS011;61199;47.526;8.538;2022-08-25T00:05:42;6.73;;;4.60;;
73023;SDS011;61199;47.526;8.538;2022-08-25T00:08:08;7.20;;;5.67;;
73023;SDS011;61199;47.526;8.538;2022-08-25T00:10:36;8.37;;;6.27;;
73023;SDS011;61199;47.526;8.538;2022-08-25T00:13:03;10.70;;;5.70;;
73023;SDS011;61199;47.526;8.538;2022-08-25T00:15:31;7.97;;;5.60;;
73023;SDS011;61199;47.526;8.538;2022-08-25T00:17:59;9.63;;;6.50;;
73023;SDS011;61199;47.526;8.538;2022-08-25T00:20:26;8.50;;;5.53;;
73023;SDS011;61199;47.526;8.538;2022-08-25T00:22:54;9.40;;;5.80;;
73023;SDS011;61199;47.526;8.538;2022-08-25T00:25:21;10.43;;;5.73;;
73023;SDS011;61199;47.526;8.538;2022-08-25T00:27:49;6.63;;;4.90;;
73023;SDS011;61199;47.526;8.538;2022-08-25T00:30:16;8.67;;;5.70;;
73023;SDS011;61199;47.526;8.538;2022-08-25T00:32:44;9.03;;;5.30;;
73023;SDS011;61199;47.526;8.538;2022-08-25T00:35:20;7.20;;;5.63;;
73023;SDS011;61199;47.526;8.538;2022-08-25T00:37:48;9.93;;;5.70;;
73023;SDS011;61199;47.526;8.538;2022-08-25T00:40:14;10.93;;;6.00;;
73023;SDS011;61199;47.526;8.538;2022-08-25T00:42:41;9.07;;;5.60;;
73023;SDS011;61199;47.526;8.538;2022-08-25T00:45:08;7.60;;;5.73;;
73023;SDS011;61199;47.526;8.538;2022-08-25T00:47:35;11.17;;;6.60;;
73023;SDS011;61199;47.526;8.538;2022-08-25T00:50:03;8.57;;;5.60;;
73023;SDS011;61199;47.526;8.538;2022-08-25T00:52:33;8.50;;;5.97;;
73023;SDS011;61199;47.526;8.538;2022-08-25T00:55:08;7.77;;;6.13;;
73023;SDS011;61199;47.526;8.538;2022-08-25T00:57:38;10.43;;;6.30;;
73023;SDS011;61199;47.526;8.538;2022-08-25T01:00:11;6.83;;;5.00;;
73023;SDS011;61199;47.526;8.538;2022-08-25T01:02:44;6.37;;;4.90;;
73023;SDS011;61199;47.526;8.538;2022-08-25T01:05:11;9.20;;;5.40;;
73023;SDS011;61199;47.526;8.538;2022-08-25T01:07:38;6.40;;;5.00;;
73023;SDS011;61199;47.526;8.538;2022-08-25T01:10:09;6.53;;;5.40;;
73023;SDS011;61199;47.526;8.538;2022-08-25T01:12:38;9.40;;;5.30;;
73023;SDS011;61199;47.526;8.538;2022-08-25T01:15:07;10.10;;;6.30;;
73023;SDS011;61199;47.526;8.538;2022-08-25T01:17:38;11.30;;;5.70;;
73023;SDS011;61199;47.526;8.538;2022-08-25T01:20:12;12.30;;;5.53;;
73023;SDS011;61199;47.526;8.538;2022-08-25T01:22:40;8.73;;;6.80;;
73023;SDS011;61199;47.526;8.538;2022-08-25T01:25:23;9.37;;;6.53;;
73023;SDS011;61199;47.526;8.538;2022-08-25T01:27:59;10.40;;;6.13;;
73023;SDS011;61199;47.526;8.538;2022-08-25T01:30:25;8.87;;;5.50;;
73023;SDS011;61199;47.526;8.538;2022-08-25T01:32:52;8.87;;;5.50;;
73023;SDS011;61199;47.526;8.538;2022-08-25T01:35:18;9.40;;;5.97;;
73023;SDS011;61199;47.526;8.538;2022-08-25T01:37:45;11.20;;;6.00;;
73023;SDS011;61199;47.526;8.538;2022-08-25T01:40:11;8.10;;;5.67;;
73023;SDS011;61199;47.526;8.538;2022-08-25T01:45:32;8.97;;;5.37;;
73023;SDS011;61199;47.526;8.538;2022-08-25T01:48:00;7.73;;;5.30;;
73023;SDS011;61199;47.526;8.538;2022-08-25T01:50:26;13.87;;;5.60;;
73023;SDS011;61199;47.526;8.538;2022-08-25T01:52:55;8.97;;;5.33;;
73023;SDS011;61199;47.526;8.538;2022-08-25T01:55:25;7.40;;;5.50;;
73023;SDS011;61199;47.526;8.538;2022-08-25T01:57:52;11.53;;;6.00;;
73023;SDS011;61199;47.526;8.538;2022-08-25T02:00:19;7.73;;;5.73;;
73023;SDS011;61199;47.526;8.538;2022-08-25T02:02:46;12.40;;;6.23;;
73023;SDS011;61199;47.526;8.538;2022-08-25T02:05:19;9.10;;;6.00;;
73023;SDS011;61199;47.526;8.538;2022-08-25T02:07:48;6.23;;;4.80;;
73023;SDS011;61199;47.526;8.538;2022-08-25T02:10:15;6.03;;;4.73;;
73023;SDS011;61199;47.526;8.538;2022-08-25T02:12:41;8.60;;;6.30;;
73023;SDS011;61199;47.526;8.538;2022-08-25T02:15:08;10.60;;;6.07;;
73023;SDS011;61199;47.526;8.538;2022-08-25T02:17:34;9.37;;;6.13;;
73023;SDS011;61199;47.526;8.538;2022-08-25T02:20:03;8.77;;;5.80;;
73023;SDS011;61199;47.526;8.538;2022-08-25T02:22:32;9.30;;;6.17;;
73023;SDS011;61199;47.526;8.538;2022-08-25T02:24:58;14.87;;;5.80;;
73023;SDS011;61199;47.526;8.538;2022-08-25T02:27:24;12.47;;;7.03;;
73023;SDS011;61199;47.526;8.538;2022-08-25T02:29:51;7.90;;;6.00;;
73023;SDS011;61199;47.526;8.538;2022-08-25T02:32:17;12.13;;;6.83;;
73023;SDS011;61199;47.526;8.538;2022-08-25T02:34:44;11.70;;;5.80;;
73023;SDS011;61199;47.526;8.538;2022-08-25T02:37:10;13.57;;;6.20;;
73023;SDS011;61199;47.526;8.538;2022-08-25T02:39:37;8.53;;;5.77;;
73023;SDS011;61199;47.526;8.538;2022-08-25T02:42:03;10.37;;;6.60;;
73023;SDS011;61199;47.526;8.538;2022-08-25T02:44:30;7.93;;;6.30;;
73023;SDS011;61199;47.526;8.538;2022-08-25T02:46:57;8.70;;;6.30;;
73023;SDS011;61199;47.526;8.538;2022-08-25T02:49:27;11.43;;;6.30;;
73023;SDS011;61199;47.526;8.538;2022-08-25T02:51:53;8.80;;;5.77;;
73023;SDS011;61199;47.526;8.538;2022-08-25T02:54:20;8.97;;;5.80;;
73023;SDS011;61199;47.526;8.538;2022-08-25T02:56:48;7.23;;;5.60;;
73023;SDS011;61199;47.526;8.538;2022-08-25T02:59:14;11.70;;;6.27;;
73023;SDS011;61199;47.526;8.538;2022-08-25T03:01:43;11.20;;;6.40;;
73023;SDS011;61199;47.526;8.538;2022-08-25T03:04:10;8.53;;;6.23;;
73023;SDS011;61199;47.526;8.538;2022-08-25T03:06:36;8.83;;;6.03;;
73023;SDS011;61199;47.526;8.538;2022-08-25T03:09:03;8.53;;;6.13;;
73023;SDS011;61199;47.526;8.538;2022-08-25T03:11:29;10.00;;;7.40;;
73023;SDS011;61199;47.526;8.538;2022-08-25T03:13:56;8.00;;;6.30;;
73023;SDS011;61199;47.526;8.538;2022-08-25T03:16:23;10.03;;;6.20;;
73023;SDS011;61199;47.526;8.538;2022-08-25T03:18:53;9.30;;;6.43;;
73023;SDS011;61199;47.526;8.538;2022-08-25T03:21:19;16.90;;;6.27;;
73023;SDS011;61199;47.526;8.538;2022-08-25T03:23:46;6.83;;;5.70;;
73023;SDS011;61199;47.526;8.538;2022-08-25T03:26:13;9.77;;;6.67;;
73023;SDS011;61199;47.526;8.538;2022-08-25T03:28:59;9.83;;;6.60;;
73023;SDS011;61199;47.526;8.538;2022-08-25T03:31:25;8.10;;;6.00;;
73023;SDS011;61199;47.526;8.538;2022-08-25T03:33:53;8.77;;;6.67;;
73023;SDS011;61199;47.526;8.538;2022-08-25T03:36:19;7.30;;;6.10;;
73023;SDS011;61199;47.526;8.538;2022-08-25T03:38:46;8.73;;;5.83;;
73023;SDS011;61199;47.526;8.538;2022-08-25T03:41:21;8.57;;;6.50;;
73023;SDS011;61199;47.526;8.538;2022-08-25T03:43:53;15.20;;;6.80;;
73023;SDS011;61199;47.526;8.538;2022-08-25T03:46:22;6.93;;;5.97;;
73023;SDS011;61199;47.526;8.538;2022-08-25T03:49:00;11.83;;;6.50;;
73023;SDS011;61199;47.526;8.538;2022-08-25T03:51:47;8.07;;;5.77;;
73023;SDS011;61199;47.526;8.538;2022-08-25T03:54:16;10.60;;;6.53;;
73023;SDS011;61199;47.526;8.538;2022-08-25T03:56:45;8.80;;;6.23;;
73023;SDS011;61199;47.526;8.538;2022-08-25T03:59:11;10.10;;;5.97;;
73023;SDS011;61199;47.526;8.538;2022-08-25T04:01:38;9.50;;;6.00;;
73023;SDS011;61199;47.526;8.538;2022-08-25T04:04:07;7.77;;;6.30;;
73023;SDS011;61199;47.526;8.538;2022-08-25T04:06:34;10.83;;;7.10;;
73023;SDS011;61199;47.526;8.538;2022-08-25T04:09:01;11.70;;;7.07;;
73023;SDS011;61199;47.526;8.538;2022-08-25T04:11:27;12.30;;;6.70;;
73023;SDS011;61199;47.526;8.538;2022-08-25T04:13:57;11.63;;;6.83;;
73023;SDS011;61199;47.526;8.538;2022-08-25T04:16:27;18.47;;;6.87;;
73023;SDS011;61199;47.526;8.538;2022-08-25T04:18:57;10.33;;;7.00;;
73023;SDS011;61199;47.526;8.538;2022-08-25T04:21:24;9.03;;;6.80;;
73023;SDS011;61199;47.526;8.538;2022-08-25T04:23:52;12.07;;;7.03;;
73023;SDS011;61199;47.526;8.538;2022-08-25T04:26:24;11.90;;;7.83;;
73023;SDS011;61199;47.526;8.538;2022-08-25T04:28:53;16.23;;;8.00;;
73023;SDS011;61199;47.526;8.538;2022-08-25T04:31:21;8.63;;;7.00;;
73023;SDS011;61199;47.526;8.538;2022-08-25T04:33:48;18.60;;;6.33;;
73023;SDS011;61199;47.526;8.538;2022-08-25T04:36:15;11.40;;;7.13;;
73023;SDS011;61199;47.526;8.538;2022-08-25T04:38:44;18.83;;;7.20;;
73023;SDS011;61199;47.526;8.538;2022-08-25T04:41:12;9.63;;;6.80;;
73023;SDS011;61199;47.526;8.538;2022-08-25T04:43:41;9.03;;;6.37;;
73023;SDS011;61199;47.526;8.538;2022-08-25T04:46:10;10.07;;;7.20;;
73023;SDS011;61199;47.526;8.538;2022-08-25T04:48:46;10.53;;;6.83;;
73023;SDS011;61199;47.526;8.538;2022-08-25T04:51:17;19.27;;;7.17;;
73023;SDS011;61199;47.526;8.538;2022-08-25T04:53:48;11.20;;;7.30;;
73023;SDS011;61199;47.526;8.538;2022-08-25T04:56:16;10.40;;;6.97;;
73023;SDS011;61199;47.526;8.538;2022-08-25T04:58:46;11.53;;;6.80;;
73023;SDS011;61199;47.526;8.538;2022-08-25T05:01:14;14.57;;;7.17;;
73023;SDS011;61199;47.526;8.538;2022-08-25T05:03:43;13.97;;;6.70;;
73023;SDS011;61199;47.526;8.538;2022-08-25T05:06:13;11.03;;;6.60;;
73023;SDS011;61199;47.526;8.538;2022-08-25T05:08:41;9.67;;;6.70;;
73023;SDS011;61199;47.526;8.538;2022-08-25T05:11:11;11.90;;;7.37;;
73023;SDS011;61199;47.526;8.538;2022-08-25T05:13:41;13.40;;;7.07;;
73023;SDS011;61199;47.526;8.538;2022-08-25T05:16:07;13.20;;;7.43;;
73023;SDS011;61199;47.526;8.538;2022-08-25T05:18:37;12.53;;;7.57;;
73023;SDS011;61199;47.526;8.538;2022-08-25T05:21:04;12.20;;;8.10;;
73023;SDS011;61199;47.526;8.538;2022-08-25T05:23:36;11.50;;;6.90;;
73023;SDS011;61199;47.526;8.538;2022-08-25T05:26:05;19.00;;;7.80;;
73023;SDS011;61199;47.526;8.538;2022-08-25T05:28:41;18.20;;;7.50;;
73023;SDS011;61199;47.526;8.538;2022-08-25T05:31:09;22.03;;;7.33;;
73023;SDS011;61199;47.526;8.538;2022-08-25T05:33:37;29.23;;;8.30;;
73023;SDS011;61199;47.526;8.538;2022-08-25T05:36:05;42.27;;;8.40;;
73023;SDS011;61199;47.526;8.538;2022-08-25T05:38:33;30.30;;;7.90;;
73023;SDS011;61199;47.526;8.538;2022-08-25T05:41:06;19.67;;;8.37;;
73023;SDS011;61199;47.526;8.538;2022-08-25T05:43:42;26.50;;;8.50;;
73023;SDS011;61199;47.526;8.538;2022-08-25T05:46:10;20.23;;;7.60;;
73023;SDS011;61199;47.526;8.538;2022-08-25T05:48:37;12.90;;;6.97;;
73023;SDS011;61199;47.526;8.538;2022-08-25T05:51:06;10.63;;;7.10;;
73023;SDS011;61199;47.526;8.538;2022-08-25T05:53:36;12.30;;;6.70;;
73023;SDS011;61199;47.526;8.538;2022-08-25T05:56:03;10.30;;;7.60;;
73023;SDS011;61199;47.526;8.538;2022-08-25T05:58:29;15.93;;;10.10;;
73023;SDS011;61199;47.526;8.538;2022-08-25T06:00:57;15.20;;;7.77;;
73023;SDS011;61199;47.526;8.538;2022-08-25T06:03:48;10.50;;;7.73;;
73023;SDS011;61199;47.526;8.538;2022-08-25T06:06:18;10.23;;;6.67;;
73023;SDS011;61199;47.526;8.538;2022-08-25T06:08:46;13.13;;;7.40;;
73023;SDS011;61199;47.526;8.538;2022-08-25T06:11:13;10.53;;;6.60;;
73023;SDS011;61199;47.526;8.538;2022-08-25T06:13:41;8.50;;;7.33;;
73023;SDS011;61199;47.526;8.538;2022-08-25T06:16:07;12.03;;;7.20;;
73023;SDS011;61199;47.526;8.538;2022-08-25T06:18:34;10.20;;;7.40;;
73023;SDS011;61199;47.526;8.538;2022-08-25T06:21:10;10.97;;;7.07;;
73023;SDS011;61199;47.526;8.538;2022-08-25T06:23:38;9.90;;;6.73;;
73023;SDS011;61199;47.526;8.538;2022-08-25T06:26:05;11.10;;;7.87;;
73023;SDS011;61199;47.526;8.538;2022-08-25T06:28:38;12.63;;;7.30;;
73023;SDS011;61199;47.526;8.538;2022-08-25T06:31:04;11.80;;;7.43;;
73023;SDS011;61199;47.526;8.538;2022-08-25T06:33:31;11.67;;;7.13;;
73023;SDS011;61199;47.526;8.538;2022-08-25T06:35:57;9.80;;;6.87;;
73023;SDS011;61199;47.526;8.538;2022-08-25T06:38:24;10.50;;;7.07;;
73023;SDS011;61199;47.526;8.538;2022-08-25T06:40:52;10.97;;;6.33;;
73023;SDS011;61199;47.526;8.538;2022-08-25T06:43:19;10.13;;;7.20;;
73023;SDS011;61199;47.526;8.538;2022-08-25T06:45:46;11.47;;;7.00;;
73023;SDS011;61199;47.526;8.538;2022-08-25T06:48:13;15.20;;;7.97;;
73023;SDS011;61199;47.526;8.538;2022-08-25T06:50:40;22.50;;;7.03;;
73023;SDS011;61199;47.526;8.538;2022-08-25T06:53:08;11.80;;;7.00;;
73023;SDS011;61199;47.526;8.538;2022-08-25T06:55:34;13.43;;;7.50;;
73023;SDS011;61199;47.526;8.538;2022-08-25T06:58:01;12.43;;;8.17;;
73023;SDS011;61199;47.526;8.538;2022-08-25T07:00:30;10.90;;;7.67;;
73023;SDS011;61199;47.526;8.538;2022-08-25T07:02:57;13.60;;;7.90;;
73023;SDS011;61199;47.526;8.538;2022-08-25T07:05:26;16.53;;;8.70;;
73023;SDS011;61199;47.526;8.538;2022-08-25T07:08:08;13.13;;;7.90;;
73023;SDS011;61199;47.526;8.538;2022-08-25T07:10:36;15.10;;;8.03;;
73023;SDS011;61199;47.526;8.538;2022-08-25T07:13:03;16.73;;;7.77;;
73023;SDS011;61199;47.526;8.538;2022-08-25T07:15:29;14.07;;;7.53;;
73023;SDS011;61199;47.526;8.538;2022-08-25T07:17:56;12.93;;;8.10;;
73023;SDS011;61199;47.526;8.538;2022-08-25T07:20:22;13.13;;;7.43;;
73023;SDS011;61199;47.526;8.538;2022-08-25T07:22:50;15.47;;;8.17;;
73023;SDS011;61199;47.526;8.538;2022-08-25T07:25:17;15.57;;;8.70;;
73023;SDS011;61199;47.526;8.538;2022-08-25T07:27:43;10.43;;;6.80;;
73023;SDS011;61199;47.526;8.538;2022-08-25T07:30:10;11.77;;;7.33;;
73023;SDS011;61199;47.526;8.538;2022-08-25T07:32:37;14.30;;;7.80;;
73023;SDS011;61199;47.526;8.538;2022-08-25T07:35:08;15.30;;;6.83;;
73023;SDS011;61199;47.526;8.538;2022-08-25T07:37:52;11.33;;;7.20;;
73023;SDS011;61199;47.526;8.538;2022-08-25T07:40:30;14.83;;;8.43;;
73023;SDS011;61199;47.526;8.538;2022-08-25T07:43:00;11.57;;;7.57;;
73023;SDS011;61199;47.526;8.538;2022-08-25T07:45:30;10.80;;;7.10;;
73023;SDS011;61199;47.526;8.538;2022-08-25T07:48:08;16.90;;;8.13;;
73023;SDS011;61199;47.526;8.538;2022-08-25T07:50:37;12.37;;;7.30;;
73023;SDS011;61199;47.526;8.538;2022-08-25T07:53:07;14.43;;;7.27;;
73023;SDS011;61199;47.526;8.538;2022-08-25T07:55:35;11.00;;;7.60;;
73023;SDS011;61199;47.526;8.538;2022-08-25T07:58:03;14.33;;;7.70;;
73023;SDS011;61199;47.526;8.538;2022-08-25T08:00:31;11.83;;;7.93;;
73023;SDS011;61199;47.526;8.538;2022-08-25T08:03:04;11.03;;;8.10;;
73023;SDS011;61199;47.526;8.538;2022-08-25T08:05:39;17.70;;;8.43;;
73023;SDS011;61199;47.526;8.538;2022-08-25T08:08:06;20.03;;;10.30;;
73023;SDS011;61199;47.526;8.538;2022-08-25T08:10:33;13.37;;;8.27;;
73023;SDS011;61199;47.526;8.538;2022-08-25T08:13:19;12.90;;;8.17;;
73023;SDS011;61199;47.526;8.538;2022-08-25T08:15:46;15.40;;;7.70;;
73023;SDS011;61199;47.526;8.538;2022-08-25T08:18:12;15.30;;;8.50;;
73023;SDS011;61199;47.526;8.538;2022-08-25T08:20:39;11.53;;;7.13;;
73023;SDS011;61199;47.526;8.538;2022-08-25T08:23:10;10.87;;;7.83;;
73023;SDS011;61199;47.526;8.538;2022-08-25T08:25:37;14.23;;;7.67;;
73023;SDS011;61199;47.526;8.538;2022-08-25T08:28:03;15.47;;;8.27;;
73023;SDS011;61199;47.526;8.538;2022-08-25T08:30:32;11.80;;;7.10;;
73023;SDS011;61199;47.526;8.538;2022-08-25T08:33:00;12.93;;;7.47;;
73023;SDS011;61199;47.526;8.538;2022-08-25T08:35:36;10.83;;;7.17;;
73023;SDS011;61199;47.526;8.538;2022-08-25T08:38:03;11.77;;;7.30;;
73023;SDS011;61199;47.526;8.538;2022-08-25T08:55:50;10.27;;;6.70;;
73023;SDS011;61199;47.526;8.538;2022-08-25T08:58:21;12.70;;;6.70;;
73023;SDS011;61199;47.526;8.538;2022-08-25T09:00:52;11.77;;;7.90;;
73023;SDS011;61199;47.526;8.538;2022-08-25T09:06:09;8.93;;;6.67;;
73023;SDS011;61199;47.526;8.538;2022-08-25T09:08:39;10.00;;;6.80;;
73023;SDS011;61199;47.526;8.538;2022-08-25T09:11:20;12.33;;;6.80;;
73023;SDS011;61199;47.526;8.538;2022-08-25T09:16:24;20.03;;;7.50;;
73023;SDS011;61199;47.526;8.538;2022-08-25T09:28:08;10.40;;;6.60;;
73023;SDS011;61199;47.526;8.538;2022-08-25T09:30:57;10.17;;;7.00;;
73023;SDS011;61199;47.526;8.538;2022-08-25T09:33:25;10.60;;;7.00;;
73023;SDS011;61199;47.526;8.538;2022-08-25T09:35:54;10.63;;;6.20;;
73023;SDS011;61199;47.526;8.538;2022-08-25T09:38:23;17.20;;;6.63;;
73023;SDS011;61199;47.526;8.538;2022-08-25T09:40:53;9.87;;;5.90;;
73023;SDS011;61199;47.526;8.538;2022-08-25T09:43:39;12.53;;;6.63;;
73023;SDS011;61199;47.526;8.538;2022-08-25T09:46:12;7.87;;;4.90;;
73023;SDS011;61199;47.526;8.538;2022-08-25T09:48:54;10.30;;;7.40;;
73023;SDS011;61199;47.526;8.538;2022-08-25T09:56:57;8.03;;;6.10;;
73023;SDS011;61199;47.526;8.538;2022-08-25T09:59:28;8.50;;;6.67;;
73023;SDS011;61199;47.526;8.538;2022-08-25T10:02:03;8.63;;;6.60;;
73023;SDS011;61199;47.526;8.538;2022-08-25T10:04:51;8.53;;;6.10;;
73023;SDS011;61199;47.526;8.538;2022-08-25T10:09:58;12.80;;;6.63;;
73023;SDS011;61199;47.526;8.538;2022-08-25T10:12:32;9.43;;;6.13;;
73023;SDS011;61199;47.526;8.538;2022-08-25T10:15:15;8.37;;;6.50;;
73023;SDS011;61199;47.526;8.538;2022-08-25T10:17:56;9.40;;;5.80;;
73023;SDS011;61199;47.526;8.538;2022-08-25T10:20:42;9.90;;;7.27;;
73023;SDS011;61199;47.526;8.538;2022-08-25T10:23:11;9.27;;;6.70;;
73023;SDS011;61199;47.526;8.538;2022-08-25T10:25:45;9.10;;;6.10;;
73023;SDS011;61199;47.526;8.538;2022-08-25T10:28:32;8.47;;;5.63;;
73023;SDS011;61199;47.526;8.538;2022-08-25T10:31:24;8.63;;;6.73;;
73023;SDS011;61199;47.526;8.538;2022-08-25T10:37:31;7.80;;;6.00;;
73023;SDS011;61199;47.526;8.538;2022-08-25T10:39:41;7.40;;;5.80;;
73023;SDS011;61199;47.526;8.538;2022-08-25T10:44:56;8.07;;;5.93;;
73023;SDS011;61199;47.526;8.538;2022-08-25T10:50:40;9.73;;;5.07;;
73023;SDS011;61199;47.526;8.538;2022-08-25T11:01:38;6.50;;;4.80;;
73023;SDS011;61199;47.526;8.538;2022-08-25T11:04:22;5.07;;;4.60;;
73023;SDS011;61199;47.526;8.538;2022-08-25T11:07:28;13.27;;;6.83;;
73023;SDS011;61199;47.526;8.538;2022-08-25T11:10:16;9.43;;;5.20;;
73023;SDS011;61199;47.526;8.538;2022-08-25T11:12:58;8.23;;;4.70;;
73023;SDS011;61199;47.526;8.538;2022-08-25T11:15:35;5.83;;;4.87;;
73023;SDS011;61199;47.526;8.538;2022-08-25T11:18:26;5.93;;;5.27;;
73023;SDS011;61199;47.526;8.538;2022-08-25T11:21:01;8.00;;;4.70;;
73023;SDS011;61199;47.526;8.538;2022-08-25T11:23:43;13.43;;;4.50;;
73023;SDS011;61199;47.526;8.538;2022-08-25T11:26:23;7.77;;;4.30;;
73023;SDS011;61199;47.526;8.538;2022-08-25T11:29:00;12.83;;;4.93;;
73023;SDS011;61199;47.526;8.538;2022-08-25T11:31:38;11.03;;;5.00;;
73023;SDS011;61199;47.526;8.538;2022-08-25T11:34:08;9.00;;;4.97;;
73023;SDS011;61199;47.526;8.538;2022-08-25T11:36:43;5.60;;;4.60;;
73023;SDS011;61199;47.526;8.538;2022-08-25T11:42:15;8.17;;;5.13;;
73023;SDS011;61199;47.526;8.538;2022-08-25T11:50:53;7.50;;;4.30;;
73023;SDS011;61199;47.526;8.538;2022-08-25T11:53:28;7.77;;;5.17;;
73023;SDS011;61199;47.526;8.538;2022-08-25T11:56:06;5.93;;;4.70;;
73023;SDS011;61199;47.526;8.538;2022-08-25T11:58:55;6.93;;;4.50;;
73023;SDS011;61199;47.526;8.538;2022-08-25T12:07:15;6.00;;;4.20;;
73023;SDS011;61199;47.526;8.538;2022-08-25T12:15:19;8.80;;;4.33;;
73023;SDS011;61199;47.526;8.538;2022-08-25T12:23:30;5.03;;;4.20;;
73023;SDS011;61199;47.526;8.538;2022-08-25T12:26:01;5.57;;;4.20;;
73023;SDS011;61199;47.526;8.538;2022-08-25T12:28:41;7.30;;;4.20;;
73023;SDS011;61199;47.526;8.538;2022-08-25T12:31:20;6.47;;;4.20;;
73023;SDS011;61199;47.526;8.538;2022-08-25T12:37:12;6.57;;;3.80;;
73023;SDS011;61199;47.526;8.538;2022-08-25T12:39:43;5.90;;;4.03;;
73023;SDS011;61199;47.526;8.538;2022-08-25T12:42:21;5.17;;;4.30;;
73023;SDS011;61199;47.526;8.538;2022-08-25T12:45:06;6.47;;;3.90;;
73023;SDS011;61199;47.526;8.538;2022-08-25T12:47:46;14.50;;;4.40;;
73023;SDS011;61199;47.526;8.538;2022-08-25T12:50:34;8.63;;;4.37;;
73023;SDS011;61199;47.526;8.538;2022-08-25T12:55:50;11.30;;;4.90;;
73023;SDS011;61199;47.526;8.538;2022-08-25T12:58:23;11.53;;;3.80;;
73023;SDS011;61199;47.526;8.538;2022-08-25T13:04:10;7.63;;;4.33;;
73023;SDS011;61199;47.526;8.538;2022-08-25T13:06:56;5.77;;;4.00;;
73023;SDS011;61199;47.526;8.538;2022-08-25T13:15:31;8.50;;;4.07;;
73023;SDS011;61199;47.526;8.538;2022-08-25T13:20:47;5.50;;;4.20;;
73023;SDS011;61199;47.526;8.538;2022-08-25T13:23:23;8.50;;;4.87;;
73023;SDS011;61199;47.526;8.538;2022-08-25T13:25:55;10.63;;;4.13;;
73023;SDS011;61199;47.526;8.538;2022-08-25T13:28:28;4.70;;;3.53;;
73023;SDS011;61199;47.526;8.538;2022-08-25T13:31:00;7.20;;;3.47;;
73023;SDS011;61199;47.526;8.538;2022-08-25T13:33:31;9.50;;;3.77;;
73023;SDS011;61199;47.526;8.538;2022-08-25T13:35:59;9.37;;;4.40;;
73023;SDS011;61199;47.526;8.538;2022-08-25T13:38:46;7.10;;;4.30;;
73023;SDS011;61199;47.526;8.538;2022-08-25T13:41:23;7.57;;;4.77;;
73023;SDS011;61199;47.526;8.538;2022-08-25T13:43:54;5.90;;;3.70;;
73023;SDS011;61199;47.526;8.538;2022-08-25T13:46:26;7.73;;;3.30;;
73023;SDS011;61199;47.526;8.538;2022-08-25T13:49:00;4.57;;;3.30;;
73023;SDS011;61199;47.526;8.538;2022-08-25T13:51:30;5.50;;;3.53;;
73023;SDS011;61199;47.526;8.538;2022-08-25T13:54:07;4.87;;;3.60;;
73023;SDS011;61199;47.526;8.538;2022-08-25T13:56:50;9.43;;;3.40;;
73023;SDS011;61199;47.526;8.538;2022-08-25T13:59:19;5.93;;;3.53;;
73023;SDS011;61199;47.526;8.538;2022-08-25T14:01:50;6.10;;;3.10;;
73023;SDS011;61199;47.526;8.538;2022-08-25T14:04:42;8.93;;;3.60;;
73023;SDS011;61199;47.526;8.538;2022-08-25T14:09:50;10.97;;;3.73;;
73023;SDS011;61199;47.526;8.538;2022-08-25T14:12:42;4.93;;;4.23;;
73023;SDS011;61199;47.526;8.538;2022-08-25T14:18:02;4.93;;;2.97;;
73023;SDS011;61199;47.526;8.538;2022-08-25T14:20:32;5.50;;;3.80;;
73023;SDS011;61199;47.526;8.538;2022-08-25T14:23:05;11.93;;;4.03;;
73023;SDS011;61199;47.526;8.538;2022-08-25T14:25:35;4.97;;;3.13;;
73023;SDS011;61199;47.526;8.538;2022-08-25T14:28:08;5.70;;;3.17;;
73023;SDS011;61199;47.526;8.538;2022-08-25T14:30:40;9.13;;;3.50;;
73023;SDS011;61199;47.526;8.538;2022-08-25T14:33:11;5.30;;;3.47;;
73023;SDS011;61199;47.526;8.538;2022-08-25T14:35:39;6.43;;;3.37;;
73023;SDS011;61199;47.526;8.538;2022-08-25T14:38:09;5.90;;;3.40;;
73023;SDS011;61199;47.526;8.538;2022-08-25T14:40:36;10.60;;;3.80;;
73023;SDS011;61199;47.526;8.538;2022-08-25T14:43:05;8.27;;;3.17;;
73023;SDS011;61199;47.526;8.538;2022-08-25T14:45:35;5.97;;;3.30;;
73023;SDS011;61199;47.526;8.538;2022-08-25T14:48:06;8.27;;;3.03;;
73023;SDS011;61199;47.526;8.538;2022-08-25T14:50:36;5.83;;;3.10;;
73023;SDS011;61199;47.526;8.538;2022-08-25T14:53:07;4.33;;;2.90;;
73023;SDS011;61199;47.526;8.538;2022-08-25T14:55:35;11.77;;;5.50;;
73023;SDS011;61199;47.526;8.538;2022-08-25T14:58:02;7.50;;;3.60;;
73023;SDS011;61199;47.526;8.538;2022-08-25T15:00:31;5.57;;;4.10;;
73023;SDS011;61199;47.526;8.538;2022-08-25T15:03:00;5.30;;;3.47;;
73023;SDS011;61199;47.526;8.538;2022-08-25T15:05:27;10.10;;;4.00;;
73023;SDS011;61199;47.526;8.538;2022-08-25T15:07:55;10.10;;;3.60;;
73023;SDS011;61199;47.526;8.538;2022-08-25T15:10:41;9.50;;;4.03;;
73023;SDS011;61199;47.526;8.538;2022-08-25T15:13:08;3.63;;;2.83;;
73023;SDS011;61199;47.526;8.538;2022-08-25T15:15:36;5.43;;;3.30;;
73023;SDS011;61199;47.526;8.538;2022-08-25T15:18:17;4.33;;;3.37;;
73023;SDS011;61199;47.526;8.538;2022-08-25T15:20:45;6.47;;;4.10;;
73023;SDS011;61199;47.526;8.538;2022-08-25T15:23:15;7.63;;;4.60;;
73023;SDS011;61199;47.526;8.538;2022-08-25T15:25:41;6.70;;;3.30;;
73023;SDS011;61199;47.526;8.538;2022-08-25T15:28:09;7.27;;;3.23;;
73023;SDS011;61199;47.526;8.538;2022-08-25T15:30:35;4.90;;;3.43;;
73023;SDS011;61199;47.526;8.538;2022-08-25T15:33:02;4.73;;;3.50;;
73023;SDS011;61199;47.526;8.538;2022-08-25T15:35:29;5.47;;;3.27;;
73023;SDS011;61199;47.526;8.538;2022-08-25T15:37:56;5.60;;;3.60;;
73023;SDS011;61199;47.526;8.538;2022-08-25T15:40:22;8.13;;;3.50;;
73023;SDS011;61199;47.526;8.538;2022-08-25T15:42:49;10.47;;;3.33;;
73023;SDS011;61199;47.526;8.538;2022-08-25T15:45:16;6.03;;;3.10;;
73023;SDS011;61199;47.526;8.538;2022-08-25T15:47:44;4.53;;;2.93;;
73023;SDS011;61199;47.526;8.538;2022-08-25T15:50:19;7.37;;;3.63;;
73023;SDS011;61199;47.526;8.538;2022-08-25T15:52:51;6.53;;;3.60;;
73023;SDS011;61199;47.526;8.538;2022-08-25T15:55:17;4.10;;;3.17;;
73023;SDS011;61199;47.526;8.538;2022-08-25T15:57:45;7.40;;;3.13;;
73023;SDS011;61199;47.526;8.538;2022-08-25T16:00:14;3.53;;;2.83;;
73023;SDS011;61199;47.526;8.538;2022-08-25T16:02:42;4.73;;;3.10;;
73023;SDS011;61199;47.526;8.538;2022-08-25T16:05:10;3.70;;;2.70;;
73023;SDS011;61199;47.526;8.538;2022-08-25T16:07:38;3.40;;;2.80;;
73023;SDS011;61199;47.526;8.538;2022-08-25T16:10:05;5.03;;;3.40;;
73023;SDS011;61199;47.526;8.538;2022-08-25T16:12:32;4.37;;;3.13;;
73023;SDS011;61199;47.526;8.538;2022-08-25T16:14:58;6.73;;;3.23;;
73023;SDS011;61199;47.526;8.538;2022-08-25T16:17:25;5.93;;;3.10;;
73023;SDS011;61199;47.526;8.538;2022-08-25T16:19:51;6.40;;;3.90;;
73023;SDS011;61199;47.526;8.538;2022-08-25T16:22:18;6.87;;;3.63;;
73023;SDS011;61199;47.526;8.538;2022-08-25T16:24:44;5.37;;;3.50;;
73023;SDS011;61199;47.526;8.538;2022-08-25T16:27:11;6.10;;;3.27;;
73023;SDS011;61199;47.526;8.538;2022-08-25T16:29:39;4.60;;;3.50;;
73023;SDS011;61199;47.526;8.538;2022-08-25T16:32:07;6.30;;;3.40;;
73023;SDS011;61199;47.526;8.538;2022-08-25T16:34:35;9.00;;;4.00;;
73023;SDS011;61199;47.526;8.538;2022-08-25T16:37:04;5.00;;;3.30;;
73023;SDS011;61199;47.526;8.538;2022-08-25T16:39:31;8.73;;;3.27;;
73023;SDS011;61199;47.526;8.538;2022-08-25T16:41:57;4.40;;;3.20;;
73023;SDS011;61199;47.526;8.538;2022-08-25T16:44:24;7.57;;;3.30;;
73023;SDS011;61199;47.526;8.538;2022-08-25T16:46:51;4.20;;;3.20;;
73023;SDS011;61199;47.526;8.538;2022-08-25T16:49:19;6.63;;;3.27;;